sensor_id;sensor_type;location;lat;lon;timestamp;pressure;altitude;pressure_sealevel;temperature;humidity
39793;BME280;26080;42.264;24.536;2023-05-01T00:01:16;99249.72;;;10.42;100.00
39793;BME280;26080;42.264;24.536;2023-05-01T00:03:41;99271.72;;;10.37;100.00
39793;BME280;26080;42.264;24.536;2023-05-01T00:06:07;99256.22;;;10.33;100.00
39793;BME280;26080;42.264;24.536;2023-05-01T00:08:33;99255.44;;;10.31;100.00
39793;BME280;26080;42.264;24.536;2023-05-01T00:11:05;99256.22;;;10.33;100.00
39793;BME280;26080;42.264;24.536;2023-05-01T00:13:34;99248.06;;;10.20;100.00
39793;BME280;26080;42.264;24.536;2023-05-01T00:15:59;99245.72;;;10.14;100.00
39793;BME280;26080;42.264;24.536;2023-05-01T00:18:25;99240.47;;;10.14;100.00
39793;BME280;26080;42.264;24.536;2023-05-01T00:20:51;99227.47;;;10.13;100.00
39793;BME280;26080;42.264;24.536;2023-05-01T00:23:16;99225.84;;;10.10;100.00
39793;BME280;26080;42.264;24.536;2023-05-01T00:25:42;99222.31;;;10.11;100.00
39793;BME280;26080;42.264;24.536;2023-05-01T00:28:08;99235.31;;;10.13;100.00
39793;BME280;26080;42.264;24.536;2023-05-01T00:30:34;99239.59;;;10.15;100.00
39793;BME280;26080;42.264;24.536;2023-05-01T00:33:00;99237.84;;;10.14;100.00
39793;BME280;26080;42.264;24.536;2023-05-01T00:35:26;99241.13;;;10.00;100.00
39793;BME280;26080;42.264;24.536;2023-05-01T00:37:52;99214.41;;;9.75;100.00
39793;BME280;26080;42.264;24.536;2023-05-01T00:40:18;99234.19;;;9.80;100.00
39793;BME280;26080;42.264;24.536;2023-05-01T00:42:43;99234.59;;;9.71;100.00
39793;BME280;26080;42.264;24.536;2023-05-01T00:45:09;99222.72;;;9.64;100.00
39793;BME280;26080;42.264;24.536;2023-05-01T00:47:35;99239.81;;;9.71;100.00
39793;BME280;26080;42.264;24.536;2023-05-01T00:50:01;99232.78;;;9.73;100.00
39793;BME280;26080;42.264;24.536;2023-05-01T00:52:28;99238.91;;;9.72;100.00
39793;BME280;26080;42.264;24.536;2023-05-01T00:54:54;99246.88;;;9.69;100.00
39793;BME280;26080;42.264;24.536;2023-05-01T00:57:20;99248.28;;;9.58;100.00
39793;BME280;26080;42.264;24.536;2023-05-01T00:59:47;99253.69;;;9.73;100.00
39793;BME280;26080;42.264;24.536;2023-05-01T01:02:13;99241.03;;;9.64;100.00
39793;BME280;26080;42.264;24.536;2023-05-01T01:04:40;99265.47;;;9.63;100.00
39793;BME280;26080;42.264;24.536;2023-05-01T01:07:11;99262.09;;;9.41;100.00
39793;BME280;26080;42.264;24.536;2023-05-01T01:09:57;99251.16;;;9.31;100.00
39793;BME280;26080;42.264;24.536;2023-05-01T01:12:29;99235.47;;;9.31;100.00
39793;BME280;26080;42.264;24.536;2023-05-01T01:15:18;99256.16;;;9.37;100.00
39793;BME280;26080;42.264;24.536;2023-05-01T01:17:56;99254.31;;;9.39;100.00
39793;BME280;26080;42.264;24.536;2023-05-01T01:26:03;99254.13;;;9.24;100.00
39793;BME280;26080;42.264;24.536;2023-05-01T01:31:28;99270.59;;;9.26;100.00
39793;BME280;26080;42.264;24.536;2023-05-01T01:36:45;99253.34;;;9.22;100.00
39793;BME280;26080;42.264;24.536;2023-05-01T01:41:56;99267.19;;;9.24;100.00
39793;BME280;26080;42.264;24.536;2023-05-01T01:44:29;99257.56;;;9.04;100.00
39793;BME280;26080;42.264;24.536;2023-05-01T01:46:58;99273.91;;;9.09;100.00
39793;BME280;26080;42.264;24.536;2023-05-01T01:49:26;99272.44;;;9.02;100.00
39793;BME280;26080;42.264;24.536;2023-05-01T01:51:52;99260.50;;;8.96;100.00
39793;BME280;26080;42.264;24.536;2023-05-01T01:54:25;99255.28;;;8.96;100.00
39793;BME280;26080;42.264;24.536;2023-05-01T01:56:54;99257.91;;;8.96;100.00
39793;BME280;26080;42.264;24.536;2023-05-01T01:59:23;99257.28;;;8.89;100.00
39793;BME280;26080;42.264;24.536;2023-05-01T02:01:50;99235.72;;;8.64;100.00
39793;BME280;26080;42.264;24.536;2023-05-01T02:04:18;99257.84;;;8.76;100.00
39793;BME280;26080;42.264;24.536;2023-05-01T02:06:45;99256.22;;;8.73;100.00
39793;BME280;26080;42.264;24.536;2023-05-01T02:09:15;99237.06;;;8.52;100.00
39793;BME280;26080;42.264;24.536;2023-05-01T02:11:43;99254.03;;;8.84;100.00
39793;BME280;26080;42.264;24.536;2023-05-01T02:14:10;99258.53;;;8.81;100.00
39793;BME280;26080;42.264;24.536;2023-05-01T02:16:38;99270.44;;;8.66;100.00
39793;BME280;26080;42.264;24.536;2023-05-01T02:19:05;99260.97;;;8.42;100.00
39793;BME280;26080;42.264;24.536;2023-05-01T02:21:32;99263.41;;;8.23;100.00
39793;BME280;26080;42.264;24.536;2023-05-01T02:24:04;99235.84;;;7.92;100.00
39793;BME280;26080;42.264;24.536;2023-05-01T02:26:35;99240.41;;;7.87;100.00
39793;BME280;26080;42.264;24.536;2023-05-01T02:29:02;99263.47;;;7.98;100.00
39793;BME280;26080;42.264;24.536;2023-05-01T02:31:29;99254.16;;;7.91;100.00
39793;BME280;26080;42.264;24.536;2023-05-01T02:33:55;99259.31;;;7.92;100.00
39793;BME280;26080;42.264;24.536;2023-05-01T02:36:20;99259.22;;;7.95;100.00
39793;BME280;26080;42.264;24.536;2023-05-01T02:38:46;99249.69;;;7.94;100.00
39793;BME280;26080;42.264;24.536;2023-05-01T02:41:15;99247.91;;;7.96;100.00
39793;BME280;26080;42.264;24.536;2023-05-01T02:43:41;99257.91;;;8.07;100.00
39793;BME280;26080;42.264;24.536;2023-05-01T02:46:09;99232.78;;;8.05;100.00
39793;BME280;26080;42.264;24.536;2023-05-01T02:48:37;99267.88;;;8.19;100.00
39793;BME280;26080;42.264;24.536;2023-05-01T02:51:03;99265.19;;;8.21;100.00
39793;BME280;26080;42.264;24.536;2023-05-01T02:53:29;99259.06;;;8.22;100.00
39793;BME280;26080;42.264;24.536;2023-05-01T02:55:56;99270.06;;;8.30;100.00
39793;BME280;26080;42.264;24.536;2023-05-01T02:58:22;99270.94;;;8.30;100.00
39793;BME280;26080;42.264;24.536;2023-05-01T03:00:48;99265.72;;;8.30;100.00
39793;BME280;26080;42.264;24.536;2023-05-01T03:03:14;99272.94;;;8.24;100.00
39793;BME280;26080;42.264;24.536;2023-05-01T03:05:41;99251.84;;;8.07;100.00
39793;BME280;26080;42.264;24.536;2023-05-01T03:08:06;99238.47;;;7.92;100.00
39793;BME280;26080;42.264;24.536;2023-05-01T03:10:32;99288.81;;;8.41;100.00
39793;BME280;26080;42.264;24.536;2023-05-01T03:12:58;99296.19;;;8.53;100.00
39793;BME280;26080;42.264;24.536;2023-05-01T03:15:24;99295.38;;;8.51;100.00
39793;BME280;26080;42.264;24.536;2023-05-01T03:17:49;99296.97;;;8.55;100.00
39793;BME280;26080;42.264;24.536;2023-05-01T03:20:15;99295.06;;;8.59;100.00
39793;BME280;26080;42.264;24.536;2023-05-01T03:22:40;99292.97;;;8.69;100.00
39793;BME280;26080;42.264;24.536;2023-05-01T03:25:06;99295.44;;;8.72;100.00
39793;BME280;26080;42.264;24.536;2023-05-01T03:27:32;99292.84;;;8.72;100.00
39793;BME280;26080;42.264;24.536;2023-05-01T03:29:57;99296.25;;;8.52;100.00
39793;BME280;26080;42.264;24.536;2023-05-01T03:32:23;99290.38;;;8.45;100.00
39793;BME280;26080;42.264;24.536;2023-05-01T03:34:49;99296.31;;;8.50;100.00
39793;BME280;26080;42.264;24.536;2023-05-01T03:37:15;99305.13;;;9.12;100.00
39793;BME280;26080;42.264;24.536;2023-05-01T03:39:40;99297.50;;;9.68;100.00
39793;BME280;26080;42.264;24.536;2023-05-01T03:42:06;99309.91;;;10.23;100.00
39793;BME280;26080;42.264;24.536;2023-05-01T03:44:31;99315.94;;;10.98;100.00
39793;BME280;26080;42.264;24.536;2023-05-01T03:46:57;99319.03;;;11.58;100.00
39793;BME280;26080;42.264;24.536;2023-05-01T03:49:22;99314.47;;;11.97;100.00
39793;BME280;26080;42.264;24.536;2023-05-01T03:51:48;99329.16;;;12.32;100.00
39793;BME280;26080;42.264;24.536;2023-05-01T03:54:13;99340.28;;;12.04;100.00
39793;BME280;26080;42.264;24.536;2023-05-01T03:56:39;99336.78;;;11.88;100.00
39793;BME280;26080;42.264;24.536;2023-05-01T03:59:05;99342.03;;;11.53;100.00
39793;BME280;26080;42.264;24.536;2023-05-01T04:01:30;99346.66;;;11.48;100.00
39793;BME280;26080;42.264;24.536;2023-05-01T04:03:58;99346.88;;;11.78;100.00
39793;BME280;26080;42.264;24.536;2023-05-01T04:06:23;99332.63;;;11.67;100.00
39793;BME280;26080;42.264;24.536;2023-05-01T04:08:49;99358.28;;;11.79;100.00
39793;BME280;26080;42.264;24.536;2023-05-01T04:11:14;99351.66;;;11.70;100.00
39793;BME280;26080;42.264;24.536;2023-05-01T04:13:40;99365.66;;;11.88;100.00
39793;BME280;26080;42.264;24.536;2023-05-01T04:16:06;99369.91;;;12.24;100.00
39793;BME280;26080;42.264;24.536;2023-05-01T04:18:31;99361.16;;;12.07;100.00
39793;BME280;26080;42.264;24.536;2023-05-01T04:20:57;99355.66;;;11.79;100.00
39793;BME280;26080;42.264;24.536;2023-05-01T04:23:22;99358.06;;;11.65;100.00
39793;BME280;26080;42.264;24.536;2023-05-01T04:25:47;99360.84;;;11.44;100.00
39793;BME280;26080;42.264;24.536;2023-05-01T04:28:13;99359.16;;;11.43;100.00
39793;BME280;26080;42.264;24.536;2023-05-01T04:30:38;99366.94;;;11.45;100.00
39793;BME280;26080;42.264;24.536;2023-05-01T04:33:04;99366.94;;;11.45;100.00
39793;BME280;26080;42.264;24.536;2023-05-01T04:35:36;99364.25;;;11.46;100.00
39793;BME280;26080;42.264;24.536;2023-05-01T04:38:06;99369.72;;;11.59;100.00
39793;BME280;26080;42.264;24.536;2023-05-01T04:40:32;99348.97;;;11.72;100.00
39793;BME280;26080;42.264;24.536;2023-05-01T04:42:58;99369.38;;;12.50;100.00
39793;BME280;26080;42.264;24.536;2023-05-01T04:45:23;99376.06;;;13.34;100.00
39793;BME280;26080;42.264;24.536;2023-05-01T04:47:49;99386.47;;;13.52;100.00
39793;BME280;26080;42.264;24.536;2023-05-01T04:50:14;99386.59;;;13.34;100.00
39793;BME280;26080;42.264;24.536;2023-05-01T04:52:40;99379.66;;;13.02;100.00
39793;BME280;26080;42.264;24.536;2023-05-01T04:55:06;99378.03;;;12.84;100.00
39793;BME280;26080;42.264;24.536;2023-05-01T04:57:31;99386.84;;;12.83;100.00
39793;BME280;26080;42.264;24.536;2023-05-01T04:59:57;99390.22;;;12.53;100.00
39793;BME280;26080;42.264;24.536;2023-05-01T05:02:23;99385.25;;;12.64;100.00
39793;BME280;26080;42.264;24.536;2023-05-01T05:04:48;99384.88;;;12.70;100.00
39793;BME280;26080;42.264;24.536;2023-05-01T05:07:14;99379.72;;;12.85;100.00
39793;BME280;26080;42.264;24.536;2023-05-01T05:09:40;99385.16;;;12.97;100.00
39793;BME280;26080;42.264;24.536;2023-05-01T05:12:05;99387.38;;;13.05;100.00
39793;BME280;26080;42.264;24.536;2023-05-01T05:14:31;99397.34;;;13.14;100.00
39793;BME280;26080;42.264;24.536;2023-05-01T05:16:56;99397.13;;;13.34;100.00
39793;BME280;26080;42.264;24.536;2023-05-01T05:19:22;99399.38;;;13.41;100.00
39793;BME280;26080;42.264;24.536;2023-05-01T05:21:47;99398.44;;;13.42;100.00
39793;BME280;26080;42.264;24.536;2023-05-01T05:24:13;99383.97;;;13.34;100.00
39793;BME280;26080;42.264;24.536;2023-05-01T05:26:38;99399.09;;;13.61;100.00
39793;BME280;26080;42.264;24.536;2023-05-01T05:29:04;99403.56;;;13.75;100.00
39793;BME280;26080;42.264;24.536;2023-05-01T05:31:29;99400.31;;;13.85;100.00
39793;BME280;26080;42.264;24.536;2023-05-01T05:33:55;99395.38;;;13.79;100.00
39793;BME280;26080;42.264;24.536;2023-05-01T05:36:20;99422.91;;;14.04;100.00
39793;BME280;26080;42.264;24.536;2023-05-01T05:38:46;99410.38;;;14.07;100.00
39793;BME280;26080;42.264;24.536;2023-05-01T05:41:11;99424.53;;;14.35;100.00
39793;BME280;26080;42.264;24.536;2023-05-01T05:43:36;99426.34;;;14.48;100.00
39793;BME280;26080;42.264;24.536;2023-05-01T05:46:02;99427.50;;;14.59;100.00
39793;BME280;26080;42.264;24.536;2023-05-01T05:48:27;99437.28;;;14.71;100.00
39793;BME280;26080;42.264;24.536;2023-05-01T05:50:53;99444.03;;;14.75;100.00
39793;BME280;26080;42.264;24.536;2023-05-01T05:53:19;99448.00;;;14.96;100.00
39793;BME280;26080;42.264;24.536;2023-05-01T05:55:47;99443.63;;;15.09;100.00
39793;BME280;26080;42.264;24.536;2023-05-01T05:58:13;99453.13;;;15.12;100.00
39793;BME280;26080;42.264;24.536;2023-05-01T06:00:47;99449.00;;;15.08;100.00
39793;BME280;26080;42.264;24.536;2023-05-01T06:03:13;99444.38;;;15.11;100.00
39793;BME280;26080;42.264;24.536;2023-05-01T06:05:41;99452.94;;;15.15;100.00
39793;BME280;26080;42.264;24.536;2023-05-01T06:08:07;99452.63;;;15.20;100.00
39793;BME280;26080;42.264;24.536;2023-05-01T06:10:35;99454.81;;;15.27;100.00
39793;BME280;26080;42.264;24.536;2023-05-01T06:13:01;99465.09;;;15.45;100.00
39793;BME280;26080;42.264;24.536;2023-05-01T06:15:27;99459.97;;;15.56;100.00
39793;BME280;26080;42.264;24.536;2023-05-01T06:17:52;99460.81;;;15.70;100.00
39793;BME280;26080;42.264;24.536;2023-05-01T06:20:17;99455.34;;;15.86;100.00
39793;BME280;26080;42.264;24.536;2023-05-01T06:22:43;99461.69;;;15.84;100.00
39793;BME280;26080;42.264;24.536;2023-05-01T06:25:08;99457.38;;;15.95;100.00
39793;BME280;26080;42.264;24.536;2023-05-01T06:27:34;99451.75;;;15.87;100.00
39793;BME280;26080;42.264;24.536;2023-05-01T06:29:59;99439.03;;;16.07;100.00
39793;BME280;26080;42.264;24.536;2023-05-01T06:32:25;99450.00;;;16.13;100.00
39793;BME280;26080;42.264;24.536;2023-05-01T06:34:50;99453.31;;;16.29;100.00
39793;BME280;26080;42.264;24.536;2023-05-01T06:37:16;99456.91;;;16.28;100.00
39793;BME280;26080;42.264;24.536;2023-05-01T06:39:41;99464.09;;;16.26;100.00
39793;BME280;26080;42.264;24.536;2023-05-01T06:42:06;99451.31;;;16.20;100.00
39793;BME280;26080;42.264;24.536;2023-05-01T06:44:32;99462.91;;;16.30;100.00
39793;BME280;26080;42.264;24.536;2023-05-01T06:46:57;99468.13;;;16.32;100.00
39793;BME280;26080;42.264;24.536;2023-05-01T06:49:25;99461.56;;;16.38;100.00
39793;BME280;26080;42.264;24.536;2023-05-01T06:51:51;99444.84;;;16.12;100.00
39793;BME280;26080;42.264;24.536;2023-05-01T06:54:17;99478.06;;;16.41;100.00
39793;BME280;26080;42.264;24.536;2023-05-01T06:56:43;99471.28;;;16.50;100.00
39793;BME280;26080;42.264;24.536;2023-05-01T06:59:08;99482.09;;;16.47;100.00
39793;BME280;26080;42.264;24.536;2023-05-01T07:01:33;99469.81;;;16.46;100.00
39793;BME280;26080;42.264;24.536;2023-05-01T07:03:59;99449.31;;;16.37;100.00
39793;BME280;26080;42.264;24.536;2023-05-01T07:06:24;99483.34;;;16.67;100.00
39793;BME280;26080;42.264;24.536;2023-05-01T07:08:50;99480.41;;;16.71;100.00
39793;BME280;26080;42.264;24.536;2023-05-01T07:11:16;99485.06;;;16.80;100.00
39793;BME280;26080;42.264;24.536;2023-05-01T07:13:41;99473.00;;;16.89;100.00
39793;BME280;26080;42.264;24.536;2023-05-01T07:16:07;99453.63;;;16.88;100.00
39793;BME280;26080;42.264;24.536;2023-05-01T07:18:32;99477.59;;;17.11;100.00
39793;BME280;26080;42.264;24.536;2023-05-01T07:20:58;99479.38;;;17.23;100.00
39793;BME280;26080;42.264;24.536;2023-05-01T07:23:24;99475.34;;;17.30;100.00
39793;BME280;26080;42.264;24.536;2023-05-01T07:25:51;99484.28;;;17.40;100.00
39793;BME280;26080;42.264;24.536;2023-05-01T07:28:16;99480.97;;;17.50;96.88
39793;BME280;26080;42.264;24.536;2023-05-01T07:30:43;99479.59;;;17.57;95.00
39793;BME280;26080;42.264;24.536;2023-05-01T07:33:09;99489.50;;;17.66;96.07
39793;BME280;26080;42.264;24.536;2023-05-01T07:35:34;99482.47;;;17.77;96.32
39793;BME280;26080;42.264;24.536;2023-05-01T07:38:00;99460.22;;;17.80;91.80
39793;BME280;26080;42.264;24.536;2023-05-01T07:40:25;99484.09;;;17.91;91.02
39793;BME280;26080;42.264;24.536;2023-05-01T07:42:51;99478.56;;;17.94;89.52
39793;BME280;26080;42.264;24.536;2023-05-01T07:45:17;99482.75;;;18.10;89.91
39793;BME280;26080;42.264;24.536;2023-05-01T07:47:42;99479.78;;;18.25;90.01
39793;BME280;26080;42.264;24.536;2023-05-01T07:50:11;99472.56;;;18.39;90.00
39793;BME280;26080;42.264;24.536;2023-05-01T07:52:37;99474.38;;;18.49;90.20
39793;BME280;26080;42.264;24.536;2023-05-01T07:55:03;99481.09;;;18.66;86.66
39793;BME280;26080;42.264;24.536;2023-05-01T07:57:29;99476.97;;;18.73;85.01
39793;BME280;26080;42.264;24.536;2023-05-01T07:59:57;99478.66;;;18.74;84.79
39793;BME280;26080;42.264;24.536;2023-05-01T08:02:23;99444.53;;;18.70;82.68
39793;BME280;26080;42.264;24.536;2023-05-01T08:04:49;99471.09;;;18.92;82.81
39793;BME280;26080;42.264;24.536;2023-05-01T08:07:14;99471.81;;;19.05;80.55
39793;BME280;26080;42.264;24.536;2023-05-01T08:09:40;99469.50;;;19.12;80.62
39793;BME280;26080;42.264;24.536;2023-05-01T08:12:05;99465.03;;;19.12;78.12
39793;BME280;26080;42.264;24.536;2023-05-01T08:14:31;99463.59;;;19.19;78.38
39793;BME280;26080;42.264;24.536;2023-05-01T08:16:56;99459.19;;;19.30;79.20
39793;BME280;26080;42.264;24.536;2023-05-01T08:19:22;99458.72;;;19.36;75.93
39793;BME280;26080;42.264;24.536;2023-05-01T08:21:47;99441.28;;;19.43;71.71
39793;BME280;26080;42.264;24.536;2023-05-01T08:24:13;99442.25;;;19.53;74.30
39793;BME280;26080;42.264;24.536;2023-05-01T08:26:38;99448.66;;;19.62;70.08
39793;BME280;26080;42.264;24.536;2023-05-01T08:29:04;99448.28;;;19.66;72.59
39793;BME280;26080;42.264;24.536;2023-05-01T08:31:29;99451.84;;;19.76;70.29
39793;BME280;26080;42.264;24.536;2023-05-01T08:33:55;99425.78;;;19.70;72.08
39793;BME280;26080;42.264;24.536;2023-05-01T08:36:21;99448.63;;;19.94;70.43
39793;BME280;26080;42.264;24.536;2023-05-01T08:38:47;99440.13;;;20.00;68.49
39793;BME280;26080;42.264;24.536;2023-05-01T08:41:31;99435.47;;;20.13;66.00
39793;BME280;26080;42.264;24.536;2023-05-01T08:43:59;99406.31;;;20.02;69.07
39793;BME280;26080;42.264;24.536;2023-05-01T08:46:46;99443.31;;;20.35;69.51
39793;BME280;26080;42.264;24.536;2023-05-01T08:49:15;99434.09;;;20.39;62.35
39793;BME280;26080;42.264;24.536;2023-05-01T08:51:44;99427.00;;;20.19;64.07
39793;BME280;26080;42.264;24.536;2023-05-01T08:54:14;99432.03;;;20.22;65.82
39793;BME280;26080;42.264;24.536;2023-05-01T08:56:42;99437.94;;;20.26;70.42
39793;BME280;26080;42.264;24.536;2023-05-01T08:59:08;99425.16;;;20.20;66.26
39793;BME280;26080;42.264;24.536;2023-05-01T09:01:36;99428.59;;;20.31;69.59
39793;BME280;26080;42.264;24.536;2023-05-01T09:04:03;99442.88;;;20.51;63.98
39793;BME280;26080;42.264;24.536;2023-05-01T09:06:30;99429.72;;;20.50;64.23
39793;BME280;26080;42.264;24.536;2023-05-01T09:08:56;99421.66;;;20.61;65.82
39793;BME280;26080;42.264;24.536;2023-05-01T09:11:23;99422.00;;;20.47;62.42
39793;BME280;26080;42.264;24.536;2023-05-01T09:13:49;99410.78;;;20.43;65.46
39793;BME280;26080;42.264;24.536;2023-05-01T09:16:16;99415.97;;;20.45;64.01
39793;BME280;26080;42.264;24.536;2023-05-01T09:18:41;99424.94;;;20.44;65.83
39793;BME280;26080;42.264;24.536;2023-05-01T09:21:33;99430.88;;;20.57;65.38
39793;BME280;26080;42.264;24.536;2023-05-01T09:24:01;99422.63;;;20.60;66.73
39793;BME280;26080;42.264;24.536;2023-05-01T09:26:27;99429.63;;;20.61;66.42
39793;BME280;26080;42.264;24.536;2023-05-01T09:28:53;99427.03;;;20.70;67.38
39793;BME280;26080;42.264;24.536;2023-05-01T09:31:31;99404.91;;;20.80;67.64
39793;BME280;26080;42.264;24.536;2023-05-01T09:33:57;99411.75;;;21.13;63.45
39793;BME280;26080;42.264;24.536;2023-05-01T09:36:28;99423.84;;;21.36;67.38
39793;BME280;26080;42.264;24.536;2023-05-01T09:38:55;99414.38;;;21.53;63.38
39793;BME280;26080;42.264;24.536;2023-05-01T09:41:22;99413.22;;;21.55;59.85
39793;BME280;26080;42.264;24.536;2023-05-01T09:43:55;99418.84;;;21.52;57.84
39793;BME280;26080;42.264;24.536;2023-05-01T09:46:22;99413.22;;;21.55;59.98
39793;BME280;26080;42.264;24.536;2023-05-01T09:48:55;99419.66;;;21.43;55.94
39793;BME280;26080;42.264;24.536;2023-05-01T09:51:25;99417.97;;;21.33;58.22
39793;BME280;26080;42.264;24.536;2023-05-01T09:53:52;99408.03;;;21.25;61.89
39793;BME280;26080;42.264;24.536;2023-05-01T09:56:18;99420.53;;;21.53;59.06
39793;BME280;26080;42.264;24.536;2023-05-01T09:58:44;99434.44;;;21.67;61.17
39793;BME280;26080;42.264;24.536;2023-05-01T10:01:10;99432.00;;;21.93;67.37
39793;BME280;26080;42.264;24.536;2023-05-01T10:03:36;99434.16;;;22.08;58.94
39793;BME280;26080;42.264;24.536;2023-05-01T10:06:02;99419.97;;;22.08;62.53
39793;BME280;26080;42.264;24.536;2023-05-01T10:08:45;99407.06;;;21.94;61.18
39793;BME280;26080;42.264;24.536;2023-05-01T10:11:11;99420.81;;;22.08;58.72
39793;BME280;26080;42.264;24.536;2023-05-01T10:13:36;99420.94;;;22.16;57.73
39793;BME280;26080;42.264;24.536;2023-05-01T10:16:02;99424.72;;;21.85;58.24
39793;BME280;26080;42.264;24.536;2023-05-01T10:18:33;99426.13;;;21.89;59.42
39793;BME280;26080;42.264;24.536;2023-05-01T10:20:59;99410.41;;;21.76;61.31
39793;BME280;26080;42.264;24.536;2023-05-01T10:23:25;99426.81;;;21.91;59.41
39793;BME280;26080;42.264;24.536;2023-05-01T10:25:51;99421.63;;;22.18;61.42
39793;BME280;26080;42.264;24.536;2023-05-01T10:28:19;99416.22;;;22.47;59.65
39793;BME280;26080;42.264;24.536;2023-05-01T10:30:45;99425.19;;;22.56;57.25
39793;BME280;26080;42.264;24.536;2023-05-01T10:33:15;99416.44;;;22.27;56.63
39793;BME280;26080;42.264;24.536;2023-05-01T10:35:44;99417.41;;;22.16;57.57
39793;BME280;26080;42.264;24.536;2023-05-01T10:38:21;99424.13;;;22.30;58.95
39793;BME280;26080;42.264;24.536;2023-05-01T10:40:49;99428.25;;;22.61;55.25
39793;BME280;26080;42.264;24.536;2023-05-01T10:43:25;99430.75;;;22.16;52.39
39793;BME280;26080;42.264;24.536;2023-05-01T10:45:54;99432.34;;;22.09;53.46
39793;BME280;26080;42.264;24.536;2023-05-01T10:51:09;99422.19;;;22.69;55.66
39793;BME280;26080;42.264;24.536;2023-05-01T10:53:38;99429.97;;;22.62;51.40
39793;BME280;26080;42.264;24.536;2023-05-01T10:56:04;99427.38;;;22.70;53.53
39793;BME280;26080;42.264;24.536;2023-05-01T11:09:42;99436.03;;;22.92;50.40
39793;BME280;26080;42.264;24.536;2023-05-01T11:12:12;99440.56;;;23.54;52.28
39793;BME280;26080;42.264;24.536;2023-05-01T11:20:04;99420.53;;;23.23;48.41
39793;BME280;26080;42.264;24.536;2023-05-01T11:22:33;99440.38;;;23.20;49.83
39793;BME280;26080;42.264;24.536;2023-05-01T11:24:59;99418.41;;;22.99;51.34
39793;BME280;26080;42.264;24.536;2023-05-01T11:27:25;99420.81;;;22.65;52.89
39793;BME280;26080;42.264;24.536;2023-05-01T11:29:52;99438.84;;;22.34;57.09
39793;BME280;26080;42.264;24.536;2023-05-01T11:32:23;99453.31;;;22.41;58.24
39793;BME280;26080;42.264;24.536;2023-05-01T11:34:49;99446.19;;;22.03;61.32
39793;BME280;26080;42.264;24.536;2023-05-01T11:37:15;99458.69;;;21.54;62.52
39793;BME280;26080;42.264;24.536;2023-05-01T11:39:48;99451.75;;;21.32;65.82
39793;BME280;26080;42.264;24.536;2023-05-01T11:42:14;99434.31;;;21.18;65.43
39793;BME280;26080;42.264;24.536;2023-05-01T11:44:39;99457.00;;;21.22;68.46
39793;BME280;26080;42.264;24.536;2023-05-01T11:47:05;99481.97;;;21.21;70.83
39793;BME280;26080;42.264;24.536;2023-05-01T11:49:31;99468.59;;;21.02;75.08
39793;BME280;26080;42.264;24.536;2023-05-01T11:51:57;99454.69;;;20.89;73.33
39793;BME280;26080;42.264;24.536;2023-05-01T11:54:23;99473.81;;;20.73;72.01
39793;BME280;26080;42.264;24.536;2023-05-01T11:56:57;99470.19;;;20.53;70.58
39793;BME280;26080;42.264;24.536;2023-05-01T11:59:23;99471.00;;;20.44;68.72
39793;BME280;26080;42.264;24.536;2023-05-01T12:01:50;99456.00;;;20.43;68.63
39793;BME280;26080;42.264;24.536;2023-05-01T12:04:26;99464.69;;;20.45;67.14
39793;BME280;26080;42.264;24.536;2023-05-01T12:06:52;99467.22;;;20.47;66.19
39793;BME280;26080;42.264;24.536;2023-05-01T12:09:24;99459.25;;;20.47;67.43
39793;BME280;26080;42.264;24.536;2023-05-01T12:11:52;99465.91;;;20.62;66.34
39793;BME280;26080;42.264;24.536;2023-05-01T12:14:18;99463.78;;;20.96;65.52
39793;BME280;26080;42.264;24.536;2023-05-01T12:16:45;99456.38;;;20.90;62.94
39793;BME280;26080;42.264;24.536;2023-05-01T12:19:14;99458.53;;;20.75;61.08
39793;BME280;26080;42.264;24.536;2023-05-01T12:21:40;99458.72;;;20.83;62.36
39793;BME280;26080;42.264;24.536;2023-05-01T12:24:15;99455.72;;;21.07;60.65
39793;BME280;26080;42.264;24.536;2023-05-01T12:26:42;99452.63;;;21.42;60.71
39793;BME280;26080;42.264;24.536;2023-05-01T12:29:08;99453.19;;;21.46;58.00
39793;BME280;26080;42.264;24.536;2023-05-01T12:31:36;99459.50;;;21.45;56.72
39793;BME280;26080;42.264;24.536;2023-05-01T12:34:05;99448.97;;;21.43;57.83
39793;BME280;26080;42.264;24.536;2023-05-01T12:36:34;99455.84;;;21.46;56.21
39793;BME280;26080;42.264;24.536;2023-05-01T12:39:02;99477.13;;;21.36;57.31
39793;BME280;26080;42.264;24.536;2023-05-01T12:41:51;99457.69;;;21.05;56.33
39793;BME280;26080;42.264;24.536;2023-05-01T12:44:26;99456.31;;;21.20;56.64
39793;BME280;26080;42.264;24.536;2023-05-01T12:49:19;99457.44;;;21.18;55.54
39793;BME280;26080;42.264;24.536;2023-05-01T12:51:49;99456.66;;;21.37;54.30
39793;BME280;26080;42.264;24.536;2023-05-01T12:54:26;99462.59;;;21.59;52.46
39793;BME280;26080;42.264;24.536;2023-05-01T12:56:53;99450.13;;;21.70;52.66
39793;BME280;26080;42.264;24.536;2023-05-01T12:59:28;99456.72;;;21.66;50.28
39793;BME280;26080;42.264;24.536;2023-05-01T13:02:02;99430.47;;;21.51;50.58
39793;BME280;26080;42.264;24.536;2023-05-01T13:04:28;99449.44;;;21.68;50.26
39793;BME280;26080;42.264;24.536;2023-05-01T13:06:54;99440.88;;;21.74;48.19
39793;BME280;26080;42.264;24.536;2023-05-01T13:09:21;99452.34;;;21.65;48.97
39793;BME280;26080;42.264;24.536;2023-05-01T13:11:56;99432.00;;;21.64;49.45
39793;BME280;26080;42.264;24.536;2023-05-01T13:14:22;99432.31;;;21.80;48.77
39793;BME280;26080;42.264;24.536;2023-05-01T13:16:48;99433.44;;;21.87;48.41
39793;BME280;26080;42.264;24.536;2023-05-01T13:19:24;99431.47;;;21.89;49.72
39793;BME280;26080;42.264;24.536;2023-05-01T13:21:50;99446.19;;;21.74;55.46